Time;durP1;ratioP1;P1;durP2;ratioP2;P2;SDS_P1;SDS_P2;PMS_P1;PMS_P2;Temp;Humidity;BMP_temperature;BMP_pressure;BME280_temperature;BME280_humidity;BME280_pressure;Samples;Min_cycle;Max_cycle;Signal;HPM_P1;HPM_P2
2023/10/06 00:00:18;;;;;;;7.67;3.53;;;8.90;98.00;;;;;;5132826;27;20446;-64
2023/10/06 00:02:54;;;;;;;7.60;4.17;;;8.80;98.00;;;;;;5132960;27;20456;-62
2023/10/06 00:05:23;;;;;;;8.77;3.90;;;8.70;98.00;;;;;;5114748;27;20482;-62
2023/10/06 00:07:51;;;;;;;10.37;4.20;;;8.70;98.00;;;;;;5132981;27;20453;-62
2023/10/06 00:10:21;;;;;;;6.40;3.60;;;8.60;98.00;;;;;;5133142;28;20483;-63
2023/10/06 00:12:53;;;;;;;10.20;4.43;;;8.60;98.00;;;;;;5132833;28;20466;-62
2023/10/06 00:15:26;;;;;;;11.50;4.17;;;8.60;98.00;;;;;;5132963;28;20483;-62
2023/10/06 00:17:56;;;;;;;7.27;3.80;;;8.50;98.00;;;;;;5132895;28;20446;-61
2023/10/06 00:20:38;;;;;;;7.13;3.77;;;8.50;98.00;;;;;;5133001;28;20453;-62
2023/10/06 00:23:06;;;;;;;9.50;3.80;;;8.50;98.00;;;;;;5132856;28;20465;-61
2023/10/06 00:25:40;;;;;;;9.30;3.90;;;8.30;98.00;;;;;;5132864;28;20480;-61
2023/10/06 00:28:17;;;;;;;9.60;4.33;;;8.30;98.00;;;;;;5132925;28;20456;-62
2023/10/06 00:30:46;;;;;;;8.20;4.17;;;8.30;98.00;;;;;;5133120;28;20865;-62
2023/10/06 00:33:13;;;;;;;9.00;4.67;;;8.30;98.00;;;;;;5132779;28;20497;-62
2023/10/06 00:35:41;;;;;;;7.90;3.73;;;8.30;98.00;;;;;;5133109;28;20454;-63
2023/10/06 00:38:16;;;;;;;7.70;4.30;;;8.40;98.00;;;;;;5133052;28;20454;-61
2023/10/06 00:40:50;;;;;;;7.27;4.47;;;8.40;98.00;;;;;;5132997;28;20515;-61
2023/10/06 00:43:34;;;;;;;10.20;4.33;;;8.30;98.00;;;;;;5132489;28;20454;-62
2023/10/06 00:46:04;;;;;;;8.60;4.10;;;8.20;98.00;;;;;;5132864;28;20900;-62
2023/10/06 00:48:32;;;;;;;9.73;4.37;;;8.20;98.00;;;;;;5132536;28;20456;-62
2023/10/06 00:51:01;;;;;;;8.37;4.30;;;8.20;98.00;;;;;;5132259;28;21008;-62
2023/10/06 00:53:32;;;;;;;7.43;3.93;;;8.20;98.00;;;;;;5132276;28;20472;-63
2023/10/06 00:56:10;;;;;;;6.83;4.00;;;8.20;98.00;;;;;;5132389;28;20479;-62
2023/10/06 00:58:42;;;;;;;8.13;4.50;;;8.20;98.00;;;;;;5132127;28;20933;-62
2023/10/06 01:01:12;;;;;;;10.27;4.33;;;8.30;98.00;;;;;;5132187;28;20502;-63
2023/10/06 01:03:41;;;;;;;10.03;4.50;;;8.20;98.00;;;;;;5133908;27;20537;-62
2023/10/06 01:06:12;;;;;;;11.70;4.40;;;8.00;98.00;;;;;;5135939;27;20479;-61
2023/10/06 01:08:41;;;;;;;9.23;4.43;;;8.00;98.00;;;;;;5136120;27;20866;-62
2023/10/06 01:11:17;;;;;;;7.80;3.90;;;8.10;98.00;;;;;;5117842;27;20939;-62
2023/10/06 01:13:55;;;;;;;6.47;4.10;;;8.30;98.00;;;;;;5136042;27;20936;-62
2023/10/06 01:16:34;;;;;;;5.93;3.47;;;8.30;98.00;;;;;;5136136;27;20844;-63
2023/10/06 01:19:14;;;;;;;10.40;4.30;;;8.30;98.00;;;;;;5135929;27;20454;-61
2023/10/06 01:21:43;;;;;;;7.73;3.83;;;8.30;98.00;;;;;;5136088;27;20899;-62
2023/10/06 01:24:13;;;;;;;10.60;4.00;;;8.30;98.00;;;;;;5135853;27;20451;-62
2023/10/06 01:26:42;;;;;;;10.90;3.87;;;8.10;98.00;;;;;;5135875;27;20929;-62
2023/10/06 01:29:11;;;;;;;8.07;4.20;;;8.00;98.00;;;;;;5135785;27;20454;-62
2023/10/06 01:31:40;;;;;;;7.90;3.80;;;8.00;98.00;;;;;;5135800;27;20496;-61
2023/10/06 01:34:08;;;;;;;10.40;3.80;;;8.20;98.00;;;;;;5135440;27;20448;-62
2023/10/06 01:36:36;;;;;;;10.47;4.10;;;8.10;98.00;;;;;;5135814;27;20458;-62
2023/10/06 01:39:05;;;;;;;9.93;4.10;;;8.20;98.00;;;;;;5135581;27;20450;-61
2023/10/06 01:41:35;;;;;;;6.90;4.00;;;8.10;98.00;;;;;;5135735;27;20858;-62
2023/10/06 01:44:10;;;;;;;10.07;4.30;;;8.10;98.00;;;;;;5135622;27;20830;-61
2023/10/06 01:46:38;;;;;;;9.10;4.10;;;8.00;98.00;;;;;;5135617;27;20450;-62
2023/10/06 01:49:10;;;;;;;10.00;4.30;;;7.80;98.00;;;;;;5117582;27;20513;-62
2023/10/06 01:51:38;;;;;;;7.50;3.90;;;7.80;98.00;;;;;;5135618;27;20450;-62
2023/10/06 01:54:07;;;;;;;9.30;3.87;;;7.80;98.00;;;;;;5135242;27;20451;-61
2023/10/06 01:56:35;;;;;;;11.77;4.80;;;7.70;98.00;;;;;;5135511;27;20819;-61
2023/10/06 01:59:04;;;;;;;9.43;3.70;;;7.50;98.00;;;;;;5135192;27;20460;-62
2023/10/06 02:01:32;;;;;;;8.30;4.27;;;7.60;98.00;;;;;;5135208;27;20447;-62
2023/10/06 02:03:59;;;;;;;7.63;4.10;;;7.50;98.00;;;;;;5135120;27;20535;-63
2023/10/06 02:06:27;;;;;;;8.00;3.80;;;7.60;98.00;;;;;;5135049;27;20482;-62
2023/10/06 02:08:54;;;;;;;12.20;3.80;;;7.70;98.00;;;;;;5135096;27;20460;-62
2023/10/06 02:11:28;;;;;;;11.53;4.30;;;7.80;98.00;;;;;;5135169;27;20946;-61
2023/10/06 02:13:58;;;;;;;7.73;3.83;;;7.90;98.00;;;;;;5134942;27;20459;-62
2023/10/06 02:16:27;;;;;;;13.70;4.60;;;7.80;98.00;;;;;;5116008;27;20543;-62
2023/10/06 02:18:55;;;;;;;12.17;4.40;;;7.80;98.00;;;;;;5135131;27;21043;-63
2023/10/06 02:21:24;;;;;;;10.03;4.57;;;7.70;98.00;;;;;;5135051;27;20459;-62
2023/10/06 02:23:52;;;;;;;7.43;3.70;;;7.60;98.00;;;;;;5134748;27;20453;-61
2023/10/06 02:26:20;;;;;;;9.23;4.20;;;7.60;98.00;;;;;;5134754;27;20477;-62
2023/10/06 02:28:50;;;;;;;9.23;4.77;;;7.70;98.00;;;;;;5134810;27;20453;-62
2023/10/06 02:31:21;;;;;;;10.97;4.50;;;7.80;98.00;;;;;;5134561;27;20445;-62
2023/10/06 02:33:50;;;;;;;6.60;3.90;;;7.80;98.00;;;;;;5134554;27;20461;-61
2023/10/06 02:36:21;;;;;;;13.30;5.20;;;7.70;98.00;;;;;;5134669;27;20481;-62
2023/10/06 02:38:48;;;;;;;9.43;4.07;;;7.80;98.00;;;;;;5115987;27;20452;-61
2023/10/06 02:41:19;;;;;;;7.87;4.20;;;7.90;98.00;;;;;;5134407;27;20448;-62
2023/10/06 02:43:48;;;;;;;11.03;4.50;;;8.00;98.00;;;;;;5134016;27;20448;-62
2023/10/06 02:46:16;;;;;;;8.50;4.10;;;8.10;98.00;;;;;;5134196;27;20484;-63
2023/10/06 02:48:51;;;;;;;10.90;4.10;;;8.10;98.00;;;;;;5134265;27;20529;-63
2023/10/06 02:51:20;;;;;;;6.03;3.40;;;8.10;98.00;;;;;;5134125;27;20449;-61
2023/10/06 02:53:51;;;;;;;8.40;4.20;;;8.00;98.00;;;;;;5134013;27;20966;-62
2023/10/06 02:56:28;;;;;;;8.23;3.90;;;8.00;98.00;;;;;;5134041;27;20955;-61
2023/10/06 02:58:59;;;;;;;6.03;3.50;;;7.90;98.00;;;;;;5133878;27;20462;-62
2023/10/06 03:01:26;;;;;;;7.27;4.07;;;8.00;98.00;;;;;;5133970;27;20538;-62
2023/10/06 03:04:06;;;;;;;11.67;4.50;;;7.90;98.00;;;;;;5133785;27;20450;-62
2023/10/06 03:06:33;;;;;;;16.53;3.80;;;7.90;98.00;;;;;;5117335;27;20573;-62
2023/10/06 03:09:06;;;;;;;6.83;3.70;;;8.20;98.00;;;;;;5115540;27;20438;-61
2023/10/06 03:11:33;;;;;;;7.20;3.73;;;8.30;98.00;;;;;;5116618;27;20508;-62
2023/10/06 03:14:05;;;;;;;8.63;3.83;;;8.40;98.00;;;;;;5115455;27;20450;-62
2023/10/06 03:16:33;;;;;;;9.53;4.83;;;8.40;98.00;;;;;;5116270;27;20526;-61
2023/10/06 03:19:02;;;;;;;7.93;3.73;;;8.40;98.00;;;;;;5133558;27;20448;-62
2023/10/06 03:21:30;;;;;;;7.57;3.80;;;8.30;98.00;;;;;;5133384;27;20454;-61
2023/10/06 03:24:05;;;;;;;9.10;4.40;;;8.40;98.00;;;;;;5133510;27;20832;-61
2023/10/06 03:26:34;;;;;;;11.93;4.23;;;8.50;98.00;;;;;;5115749;28;20504;-62
2023/10/06 03:29:03;;;;;;;15.50;4.40;;;8.60;98.00;;;;;;5133408;27;20483;-62
2023/10/06 03:31:44;;;;;;;10.33;3.83;;;8.50;98.00;;;;;;5133547;27;20490;-62
2023/10/06 03:34:16;;;;;;;7.90;3.80;;;8.60;98.00;;;;;;5133527;27;20455;-62
2023/10/06 03:36:51;;;;;;;8.20;3.83;;;8.80;98.00;;;;;;5133498;27;20439;-63
2023/10/06 03:39:27;;;;;;;8.53;4.20;;;8.80;98.00;;;;;;5133282;27;20557;-62
2023/10/06 03:41:59;;;;;;;6.63;3.93;;;8.60;98.00;;;;;;5133575;27;20904;-64
2023/10/06 03:44:29;;;;;;;8.37;3.83;;;8.50;98.00;;;;;;5115097;27;20454;-63
2023/10/06 03:47:00;;;;;;;6.60;3.63;;;8.50;98.00;;;;;;5133422;27;20479;-62
2023/10/06 03:49:33;;;;;;;7.47;3.87;;;8.60;98.00;;;;;;5133307;27;20942;-62
2023/10/06 03:52:00;;;;;;;6.47;3.60;;;8.50;98.00;;;;;;5133389;27;20540;-62
2023/10/06 03:54:27;;;;;;;6.77;3.50;;;8.50;98.00;;;;;;5115301;27;20465;-62
2023/10/06 03:56:55;;;;;;;8.10;3.60;;;8.50;98.00;;;;;;5133099;27;20446;-64
2023/10/06 03:59:23;;;;;;;7.47;3.37;;;8.50;98.00;;;;;;5133234;27;20451;-61
2023/10/06 04:01:55;;;;;;;7.03;3.70;;;8.20;98.00;;;;;;5133428;27;20449;-62
2023/10/06 04:04:26;;;;;;;6.97;3.60;;;8.10;98.00;;;;;;5132978;27;20537;-63
2023/10/06 04:06:57;;;;;;;6.93;3.60;;;8.10;98.00;;;;;;5132875;27;20489;-62
2023/10/06 04:09:28;;;;;;;6.97;4.20;;;8.10;98.00;;;;;;5132995;28;20455;-61
2023/10/06 04:11:56;;;;;;;5.13;3.30;;;7.90;98.00;;;;;;5115200;28;20579;-62
2023/10/06 04:14:27;;;;;;;6.37;3.43;;;8.00;98.00;;;;;;5132766;28;20448;-62
2023/10/06 04:16:54;;;;;;;7.53;3.40;;;8.20;98.00;;;;;;5132677;28;20495;-62
2023/10/06 04:19:21;;;;;;;7.67;3.60;;;8.30;98.00;;;;;;5132734;28;20470;-61
2023/10/06 04:21:50;;;;;;;8.80;3.80;;;8.30;98.00;;;;;;5114172;28;20454;-62
2023/10/06 04:24:19;;;;;;;6.13;3.27;;;8.20;98.00;;;;;;5132770;28;20446;-62
2023/10/06 04:26:46;;;;;;;6.57;3.47;;;8.20;98.00;;;;;;5132284;28;20506;-61
2023/10/06 04:29:14;;;;;;;7.40;3.97;;;8.20;98.00;;;;;;5132408;28;20499;-63
2023/10/06 04:31:42;;;;;;;6.43;3.40;;;8.10;98.00;;;;;;5114003;28;20541;-62
2023/10/06 04:34:10;;;;;;;9.73;3.53;;;8.10;98.00;;;;;;5132496;28;20542;-62
2023/10/06 04:36:37;;;;;;;6.63;3.67;;;8.10;98.00;;;;;;5132727;28;20484;-62
2023/10/06 04:39:09;;;;;;;11.33;3.73;;;8.10;98.00;;;;;;5135016;27;20443;-62
2023/10/06 04:41:41;;;;;;;7.57;3.80;;;8.20;98.00;;;;;;5136665;27;20461;-62
2023/10/06 04:44:08;;;;;;;7.93;4.07;;;8.20;98.00;;;;;;5118612;27;20473;-62
2023/10/06 04:46:41;;;;;;;7.17;3.93;;;8.30;98.00;;;;;;5136615;27;20484;-63
2023/10/06 04:49:09;;;;;;;6.70;3.40;;;8.30;98.00;;;;;;5118172;27;20813;-62
2023/10/06 04:51:36;;;;;;;6.60;3.60;;;8.40;98.00;;;;;;5118614;27;20460;-62
2023/10/06 04:54:07;;;;;;;8.40;4.07;;;8.40;98.00;;;;;;5127468;27;20443;-62
2023/10/06 04:56:35;;;;;;;7.50;3.97;;;8.20;98.00;;;;;;5116059;28;20447;-63
2023/10/06 04:59:05;;;;;;;7.13;3.47;;;8.10;98.00;;;;;;5115725;28;20493;-63
2023/10/06 05:01:32;;;;;;;6.70;3.40;;;8.10;98.00;;;;;;5116023;28;20492;-62
2023/10/06 05:04:05;;;;;;;7.60;4.13;;;8.10;98.00;;;;;;5115598;28;20460;-61
2023/10/06 05:06:32;;;;;;;6.13;3.43;;;8.00;98.00;;;;;;5115663;28;20568;-62
2023/10/06 05:09:01;;;;;;;7.93;3.87;;;8.00;98.00;;;;;;5115850;28;20443;-62
2023/10/06 05:11:32;;;;;;;8.87;3.93;;;8.00;98.00;;;;;;5115733;28;20443;-62
2023/10/06 05:14:00;;;;;;;5.97;3.23;;;8.00;98.00;;;;;;5115758;28;20872;-62
2023/10/06 05:16:29;;;;;;;6.83;3.63;;;8.00;98.00;;;;;;5115716;28;20558;-64
2023/10/06 05:18:56;;;;;;;8.87;3.77;;;8.10;98.00;;;;;;5115437;28;20446;-63
2023/10/06 05:21:23;;;;;;;5.43;3.57;;;8.10;98.00;;;;;;5115569;28;20536;-62
2023/10/06 05:23:51;;;;;;;7.97;3.67;;;8.10;98.00;;;;;;5115561;28;20451;-64
2023/10/06 05:26:20;;;;;;;7.20;3.80;;;8.00;98.00;;;;;;5115450;28;20490;-62
2023/10/06 05:28:47;;;;;;;6.33;3.37;;;7.90;98.00;;;;;;5115399;28;20469;-62
2023/10/06 05:31:14;;;;;;;6.57;3.90;;;8.10;98.00;;;;;;5115437;28;20454;-63
2023/10/06 05:33:43;;;;;;;7.97;3.37;;;8.10;98.00;;;;;;5115340;28;20495;-62
2023/10/06 05:36:10;;;;;;;6.50;4.10;;;8.00;98.00;;;;;;5115335;28;20454;-62
2023/10/06 05:38:38;;;;;;;6.50;3.47;;;8.00;98.00;;;;;;5115458;28;20445;-63
2023/10/06 05:41:11;;;;;;;6.13;3.40;;;8.00;98.00;;;;;;5115436;28;20516;-62
2023/10/06 05:43:38;;;;;;;6.60;3.90;;;8.00;98.00;;;;;;5115183;28;20446;-62
2023/10/06 05:46:05;;;;;;;6.23;3.33;;;8.10;98.00;;;;;;5114897;28;20573;-62
2023/10/06 05:48:34;;;;;;;8.47;4.10;;;8.20;98.00;;;;;;5114488;28;20782;-63
2023/10/06 05:51:08;;;;;;;6.50;3.60;;;8.10;98.00;;;;;;5095026;28;20446;-63
2023/10/06 05:53:38;;;;;;;7.50;4.23;;;7.90;98.00;;;;;;5114323;28;20511;-62
2023/10/06 05:56:07;;;;;;;7.57;3.70;;;7.80;98.00;;;;;;5114577;28;20526;-62
2023/10/06 05:58:37;;;;;;;8.67;3.87;;;7.90;98.00;;;;;;5114590;28;20932;-60
2023/10/06 06:01:06;;;;;;;8.07;4.03;;;8.00;98.00;;;;;;5114449;28;20447;-59
2023/10/06 06:03:33;;;;;;;8.13;4.13;;;8.10;98.00;;;;;;5114304;28;20487;-61
2023/10/06 06:06:09;;;;;;;10.53;4.63;;;8.10;98.00;;;;;;5114439;28;20486;-59
2023/10/06 06:08:39;;;;;;;8.27;4.20;;;8.10;98.00;;;;;;5114457;28;20473;-58
2023/10/06 06:11:06;;;;;;;11.93;4.37;;;8.10;98.00;;;;;;5114333;28;20929;-59
2023/10/06 06:13:36;;;;;;;7.50;3.90;;;8.10;98.00;;;;;;5114350;28;20455;-60
2023/10/06 06:16:05;;;;;;;10.53;4.53;;;8.20;98.00;;;;;;5114431;28;20441;-60
2023/10/06 06:18:33;;;;;;;13.13;4.70;;;8.00;98.00;;;;;;5096493;28;20478;-59
2023/10/06 06:21:03;;;;;;;7.07;4.20;;;7.90;98.00;;;;;;5114213;28;21012;-60
2023/10/06 06:23:33;;;;;;;8.83;4.50;;;7.70;98.00;;;;;;5114142;28;20490;-59
2023/10/06 06:26:00;;;;;;;8.20;3.97;;;7.70;98.00;;;;;;5114182;28;20597;-58
2023/10/06 06:28:28;;;;;;;9.67;4.20;;;7.90;98.00;;;;;;5095808;28;20811;-59
2023/10/06 06:30:55;;;;;;;9.57;4.27;;;8.10;98.00;;;;;;5114096;28;20448;-60
2023/10/06 06:33:23;;;;;;;8.43;4.20;;;8.20;98.00;;;;;;5113976;28;20454;-61
2023/10/06 06:35:50;;;;;;;7.80;4.60;;;8.30;98.00;;;;;;5114023;28;20490;-60
2023/10/06 06:38:24;;;;;;;10.77;5.03;;;8.10;98.00;;;;;;5114042;28;20451;-59
2023/10/06 06:40:53;;;;;;;12.60;5.80;;;7.90;98.00;;;;;;5114004;28;20476;-59
2023/10/06 06:43:20;;;;;;;11.60;5.60;;;7.80;98.00;;;;;;5113939;28;20443;-61
2023/10/06 06:45:47;;;;;;;13.43;5.80;;;7.80;98.00;;;;;;5113831;28;20457;-59
2023/10/06 06:48:16;;;;;;;12.93;5.60;;;7.90;98.00;;;;;;5113799;28;20451;-60
2023/10/06 06:50:44;;;;;;;8.03;4.37;;;8.00;98.00;;;;;;5096007;28;20449;-60
2023/10/06 06:53:23;;;;;;;9.43;4.40;;;8.10;98.00;;;;;;5113815;28;20451;-59
2023/10/06 06:55:52;;;;;;;12.83;4.60;;;8.30;98.00;;;;;;5113783;28;20512;-61
2023/10/06 06:58:19;;;;;;;11.97;5.37;;;8.50;98.00;;;;;;5113695;28;20454;-59
2023/10/06 07:00:47;;;;;;;11.63;5.60;;;8.70;98.00;;;;;;5113682;28;20801;-59
2023/10/06 07:03:15;;;;;;;16.60;5.20;;;8.80;98.00;;;;;;5113549;28;20457;-60
2023/10/06 07:05:42;;;;;;;11.60;5.60;;;8.70;98.00;;;;;;5113506;28;20509;-59
2023/10/06 07:08:11;;;;;;;11.57;5.20;;;8.80;98.00;;;;;;5113407;28;20732;-59
2023/10/06 07:10:52;;;;;;;11.57;5.27;;;8.90;98.00;;;;;;5113611;28;20449;-59
2023/10/06 07:13:22;;;;;;;9.87;5.20;;;8.90;98.00;;;;;;5113717;28;20464;-59
2023/10/06 07:15:51;;;;;;;10.97;4.93;;;8.80;98.00;;;;;;5113584;28;20539;-60
2023/10/06 07:18:19;;;;;;;10.10;5.00;;;8.80;98.00;;;;;;5113242;28;20455;-59
2023/10/06 07:20:47;;;;;;;9.67;4.57;;;8.80;98.00;;;;;;5113002;28;20504;-59
2023/10/06 07:23:14;;;;;;;10.37;5.53;;;8.90;98.00;;;;;;5112856;28;20457;-60
2023/10/06 07:25:42;;;;;;;10.70;5.40;;;8.80;98.00;;;;;;5112989;28;20936;-60
2023/10/06 07:28:12;;;;;;;13.63;4.90;;;8.80;98.00;;;;;;5113224;28;20491;-61
2023/10/06 07:30:40;;;;;;;12.47;5.03;;;8.90;98.00;;;;;;5112898;28;20481;-59
2023/10/06 07:33:12;;;;;;;11.60;5.27;;;8.80;98.00;;;;;;5112851;28;20455;-59
2023/10/06 07:35:41;;;;;;;10.20;4.90;;;9.10;98.00;;;;;;5095432;28;20545;-61
2023/10/06 07:38:10;;;;;;;10.37;5.70;;;9.30;98.00;;;;;;5112901;28;20877;-60
2023/10/06 07:40:38;;;;;;;9.57;4.60;;;9.40;98.00;;;;;;5106170;28;20448;-59
2023/10/06 07:43:07;;;;;;;14.80;4.90;;;9.40;98.00;;;;;;5091586;28;20466;-60
2023/10/06 07:45:35;;;;;;;16.63;5.47;;;9.50;98.00;;;;;;5092116;28;20450;-59
2023/10/06 07:48:05;;;;;;;11.50;5.43;;;9.60;98.00;;;;;;5073362;28;20933;-58
2023/10/06 07:50:33;;;;;;;15.33;5.60;;;9.70;98.00;;;;;;5091477;28;20516;-59
2023/10/06 07:53:01;;;;;;;10.83;5.63;;;9.70;98.00;;;;;;5091556;28;20467;-60
2023/10/06 07:55:31;;;;;;;11.50;5.30;;;9.70;98.00;;;;;;5091164;28;20449;-59
2023/10/06 07:58:00;;;;;;;12.80;5.90;;;9.80;98.00;;;;;;5091171;28;20463;-58
2023/10/06 08:00:38;;;;;;;10.27;5.50;;;9.90;98.00;;;;;;5091338;28;20505;-59
2023/10/06 08:03:07;;;;;;;10.17;5.47;;;10.00;98.00;;;;;;5091277;28;20452;-61
2023/10/06 08:05:34;;;;;;;13.30;5.50;;;10.20;98.00;;;;;;5091258;28;20848;-59
2023/10/06 08:08:04;;;;;;;13.70;5.50;;;10.30;98.00;;;;;;5091038;28;20506;-59
2023/10/06 08:10:31;;;;;;;12.37;5.63;;;10.50;98.00;;;;;;5091330;28;20448;-60
2023/10/06 08:13:01;;;;;;;13.57;5.30;;;10.70;98.00;;;;;;5090726;28;20534;-60
2023/10/06 08:15:28;;;;;;;16.90;5.90;;;10.90;98.00;;;;;;5091189;28;20477;-61
2023/10/06 08:17:55;;;;;;;16.20;5.77;;;11.00;98.00;;;;;;5105590;28;20455;-58
2023/10/06 08:20:25;;;;;;;11.03;5.67;;;11.20;98.00;;;;;;5111112;28;20453;-60
2023/10/06 08:22:52;;;;;;;11.37;5.57;;;11.30;98.00;;;;;;5111220;28;20461;-61
2023/10/06 08:25:23;;;;;;;12.73;5.70;;;11.40;98.00;;;;;;5111217;28;20594;-59
2023/10/06 08:27:52;;;;;;;13.23;6.23;;;11.50;98.00;;;;;;5105754;28;20504;-61
2023/10/06 08:30:20;;;;;;;13.13;5.00;;;11.70;98.00;;;;;;5090828;28;20525;-59
2023/10/06 08:32:47;;;;;;;18.10;6.40;;;11.80;98.00;;;;;;5091001;28;20445;-59
2023/10/06 08:35:15;;;;;;;14.53;5.57;;;11.90;98.00;;;;;;5090835;28;20506;-60
2023/10/06 08:37:45;;;;;;;10.60;5.27;;;12.00;98.00;;;;;;5091190;28;20860;-59
2023/10/06 08:40:16;;;;;;;10.60;5.10;;;12.10;98.00;;;;;;5096819;28;20456;-60
2023/10/06 08:42:47;;;;;;;17.00;5.63;;;12.30;98.00;;;;;;5093577;28;20506;-59
2023/10/06 08:45:19;;;;;;;11.43;5.73;;;12.50;98.00;;;;;;5111163;28;20486;-60
2023/10/06 08:47:47;;;;;;;11.40;5.70;;;12.70;98.00;;;;;;5110755;28;20825;-61
2023/10/06 08:50:22;;;;;;;13.23;5.87;;;12.90;98.00;;;;;;5111124;28;20458;-60
2023/10/06 08:52:52;;;;;;;11.37;5.50;;;13.10;98.00;;;;;;5111379;28;20918;-60
2023/10/06 08:55:19;;;;;;;12.30;6.00;;;13.30;98.00;;;;;;5111112;28;20486;-61
2023/10/06 08:57:47;;;;;;;17.30;6.00;;;13.50;98.00;;;;;;5093053;28;20463;-61
2023/10/06 09:00:16;;;;;;;10.10;5.07;;;13.70;98.00;;;;;;5111279;28;20804;-62
2023/10/06 09:02:43;;;;;;;10.13;5.20;;;13.80;98.00;;;;;;5111355;28;20460;-61
2023/10/06 09:05:11;;;;;;;11.43;5.60;;;14.00;98.00;;;;;;5111250;28;20940;-63
2023/10/06 09:07:38;;;;;;;17.93;6.30;;;14.20;98.00;;;;;;5111117;28;20475;-61
2023/10/06 09:10:22;;;;;;;10.43;4.50;;;14.40;98.00;;;;;;5110938;28;20452;-62
2023/10/06 09:13:04;;;;;;;10.90;5.23;;;14.60;98.00;;;;;;5109432;28;20451;-62
2023/10/06 09:15:31;;;;;;;9.80;4.70;;;14.80;98.00;;;;;;5110915;28;20938;-63
2023/10/06 09:17:59;;;;;;;13.57;5.10;;;15.00;98.00;;;;;;5110996;28;20729;-61
2023/10/06 09:20:31;;;;;;;10.20;4.50;;;15.10;98.00;;;;;;5110222;28;20457;-61
2023/10/06 09:23:00;;;;;;;8.90;4.40;;;15.20;98.00;;;;;;5110785;28;20477;-62
2023/10/06 09:25:40;;;;;;;11.27;5.37;;;15.40;98.00;;;;;;5112081;28;20521;-61
2023/10/06 09:28:13;;;;;;;12.43;4.87;;;15.60;98.00;;;;;;5114510;28;20853;-63
2023/10/06 09:30:51;;;;;;;9.30;4.63;;;15.80;98.00;;;;;;5114650;28;20545;-61
2023/10/06 09:33:18;;;;;;;10.20;5.00;;;16.00;98.00;;;;;;5114600;28;20456;-61
2023/10/06 09:35:45;;;;;;;11.27;4.80;;;16.20;98.00;;;;;;5114781;28;20454;-62
2023/10/06 09:38:16;;;;;;;12.50;4.60;;;16.40;98.00;;;;;;5114639;28;20465;-62
2023/10/06 09:40:46;;;;;;;11.07;4.50;;;16.50;98.00;;;;;;5112291;28;20454;-61
2023/10/06 09:43:15;;;;;;;11.53;5.10;;;16.60;98.00;;;;;;5113445;28;20450;-60
2023/10/06 09:45:43;;;;;;;9.53;4.67;;;16.70;98.00;;;;;;5113922;28;20454;-62
2023/10/06 09:48:15;;;;;;;7.77;4.33;;;16.90;98.00;;;;;;5113908;28;20988;-60
2023/10/06 09:50:50;;;;;;;18.07;4.80;;;17.20;98.00;;;;;;5114454;28;20960;-60
2023/10/06 09:53:21;;;;;;;11.83;4.30;;;17.30;98.00;;;;;;5114929;28;20798;-59
2023/10/06 09:55:58;;;;;;;9.70;4.53;;;17.40;98.00;;;;;;5114668;28;20458;-60
2023/10/06 09:58:26;;;;;;;8.70;4.20;;;17.60;98.00;;;;;;5114526;28;20971;-60
2023/10/06 10:00:54;;;;;;;7.90;4.43;;;17.90;98.00;;;;;;5114481;28;20473;-61
2023/10/06 10:03:23;;;;;;;8.60;4.40;;;18.10;98.00;;;;;;5114792;28;20447;-60
2023/10/06 10:05:52;;;;;;;10.47;4.63;;;18.20;98.00;;;;;;5114480;28;20446;-60
2023/10/06 10:08:22;;;;;;;16.00;4.37;;;18.40;98.00;;;;;;5114620;28;20479;-60
2023/10/06 10:10:55;;;;;;;10.40;4.20;;;18.60;98.00;;;;;;5113450;28;20520;-60
2023/10/06 10:13:56;;;;;;;10.17;4.23;;;18.70;98.00;;;;;;5114577;28;20447;-61
2023/10/06 10:16:39;;;;;;;8.30;4.53;;;19.00;98.00;;;;;;5114708;28;20475;-60
2023/10/06 10:19:11;;;;;;;10.70;5.07;;;19.20;98.00;;;;;;5114421;28;20450;-60
2023/10/06 10:21:41;;;;;;;8.53;5.10;;;19.40;98.00;;;;;;5114532;28;20504;-60
2023/10/06 10:24:12;;;;;;;9.00;4.80;;;19.60;98.00;;;;;;5114189;28;20454;-61
2023/10/06 10:26:50;;;;;;;9.97;4.27;;;19.70;98.00;;;;;;5114389;28;20500;-60
2023/10/06 10:29:31;;;;;;;9.90;4.40;;;19.80;98.00;;;;;;5113945;28;20514;-61
2023/10/06 10:32:17;;;;;;;9.67;4.87;;;19.90;98.00;;;;;;5114103;28;20446;-60
2023/10/06 10:35:07;;;;;;;8.23;4.87;;;20.00;98.00;;;;;;5114116;28;20843;-60
2023/10/06 10:37:52;;;;;;;10.73;4.47;;;20.20;98.00;;;;;;5113717;28;20486;-60
2023/10/06 10:40:22;;;;;;;12.80;4.37;;;20.30;98.00;;;;;;5114000;28;20457;-62
2023/10/06 10:42:57;;;;;;;8.83;4.70;;;20.50;98.00;;;;;;5114079;28;20835;-62
2023/10/06 10:45:34;;;;;;;8.93;4.00;;;20.60;98.00;;;;;;5113703;28;20443;-60
2023/10/06 10:48:05;;;;;;;10.50;4.23;;;20.80;98.00;;;;;;5113383;28;20853;-60
2023/10/06 10:50:58;;;;;;;7.97;4.00;;;21.00;98.00;;;;;;5113315;28;20455;-60
2023/10/06 10:53:29;;;;;;;7.23;4.30;;;21.00;98.00;;;;;;5113653;28;20454;-61
2023/10/06 10:55:57;;;;;;;9.63;4.50;;;21.10;98.00;;;;;;5112896;28;20550;-60
2023/10/06 10:58:58;;;;;;;11.23;4.20;;;21.30;98.00;;;;;;5112974;28;20466;-60
2023/10/06 11:01:27;;;;;;;8.40;4.33;;;21.40;98.00;;;;;;5111920;28;20461;-61
2023/10/06 11:04:18;;;;;;;6.40;3.70;;;21.60;98.00;;;;;;5113376;28;20447;-60
2023/10/06 11:06:48;;;;;;;7.57;3.60;;;21.80;98.00;;;;;;5113281;28;20542;-61
2023/10/06 11:09:25;;;;;;;12.83;3.70;;;22.00;98.00;;;;;;5112878;28;20497;-60
2023/10/06 11:11:55;;;;;;;9.40;4.40;;;22.10;98.00;;;;;;5113014;28;20451;-61
2023/10/06 11:14:25;;;;;;;8.90;4.50;;;22.10;98.00;;;;;;5113217;28;20810;-61
2023/10/06 11:16:53;;;;;;;7.77;3.80;;;22.30;98.00;;;;;;5113465;28;20451;-61
2023/10/06 11:19:21;;;;;;;7.90;4.20;;;22.50;98.00;;;;;;5112771;28;20443;-61
2023/10/06 11:21:48;;;;;;;7.50;3.90;;;22.50;98.00;;;;;;5112912;28;20451;-61
2023/10/06 11:24:28;;;;;;;7.80;3.80;;;22.50;98.00;;;;;;5112898;28;20520;-61
2023/10/06 11:26:55;;;;;;;8.17;4.10;;;22.60;98.00;;;;;;5112985;28;20461;-61
2023/10/06 11:29:31;;;;;;;14.00;5.20;;;22.80;98.00;;;;;;5112749;28;20479;-61
2023/10/06 11:32:03;;;;;;;7.13;4.53;;;22.70;98.00;;;;;;5112794;28;20455;-61
2023/10/06 11:34:30;;;;;;;18.60;3.83;;;22.70;98.00;;;;;;5112981;28;20454;-60
2023/10/06 11:36:58;;;;;;;9.00;4.10;;;22.80;98.00;;;;;;5112781;28;20450;-61
2023/10/06 11:39:29;;;;;;;11.50;4.47;;;23.10;98.00;;;;;;5112709;28;20545;-61
2023/10/06 11:42:35;;;;;;;7.10;4.00;;;23.60;97.20;;;;;;5111580;28;20453;-61
2023/10/06 11:45:11;;;;;;;10.80;4.20;;;23.80;97.30;;;;;;5112693;28;21121;-61
2023/10/06 11:47:42;;;;;;;8.20;4.10;;;24.20;95.70;;;;;;5111762;28;20478;-62
2023/10/06 11:50:25;;;;;;;9.07;4.07;;;24.40;95.70;;;;;;5112274;28;20520;-61
2023/10/06 11:52:52;;;;;;;5.80;3.73;;;24.80;94.10;;;;;;5110165;28;20451;-61
2023/10/06 11:55:29;;;;;;;8.70;4.00;;;25.00;92.30;;;;;;5111276;28;20454;-61
2023/10/06 11:58:00;;;;;;;6.30;3.30;;;25.10;91.90;;;;;;5112245;28;20465;-61
2023/10/06 12:00:40;;;;;;;12.93;4.27;;;25.30;91.80;;;;;;5111253;28;20948;-61
2023/10/06 12:03:10;;;;;;;7.73;3.60;;;25.40;91.00;;;;;;5112517;28;20451;-61
2023/10/06 12:05:37;;;;;;;7.80;3.80;;;25.50;91.80;;;;;;5112426;28;20542;-62
2023/10/06 12:08:06;;;;;;;8.00;3.93;;;25.60;91.30;;;;;;5112210;28;20487;-61
2023/10/06 12:10:37;;;;;;;4.67;3.30;;;25.60;90.00;;;;;;5112445;28;20451;-63
2023/10/06 12:13:05;;;;;;;6.73;3.77;;;25.80;88.70;;;;;;5112448;28;20508;-62
2023/10/06 12:15:32;;;;;;;7.20;3.80;;;25.80;89.70;;;;;;5112194;28;20494;-62
2023/10/06 12:18:04;;;;;;;9.70;3.90;;;26.00;89.20;;;;;;5111801;28;20473;-61
2023/10/06 12:20:35;;;;;;;6.60;3.97;;;26.10;88.40;;;;;;5111879;28;20451;-61
2023/10/06 12:23:02;;;;;;;9.10;3.80;;;26.20;87.80;;;;;;5111767;28;20459;-61
2023/10/06 12:25:29;;;;;;;7.53;3.43;;;26.20;87.20;;;;;;5112044;28;20451;-63
2023/10/06 12:27:59;;;;;;;7.83;3.50;;;26.30;86.80;;;;;;5112202;28;20490;-61
2023/10/06 12:30:28;;;;;;;6.90;3.87;;;26.40;87.30;;;;;;5112106;28;20508;-61
2023/10/06 12:32:55;;;;;;;7.20;4.00;;;26.40;86.90;;;;;;5111900;28;20976;-63
2023/10/06 12:35:28;;;;;;;8.23;3.97;;;26.50;87.30;;;;;;5111942;28;20457;-61
2023/10/06 12:37:56;;;;;;;6.80;3.50;;;26.60;85.70;;;;;;5111993;28;20450;-62
2023/10/06 12:40:23;;;;;;;12.80;3.93;;;26.60;86.30;;;;;;5112078;28;20796;-60
2023/10/06 12:42:50;;;;;;;6.87;3.87;;;26.70;86.10;;;;;;5111895;28;20454;-60
2023/10/06 12:45:21;;;;;;;7.73;3.53;;;26.80;85.80;;;;;;5111805;28;20462;-61
2023/10/06 12:47:49;;;;;;;7.00;3.70;;;27.00;84.60;;;;;;5112045;28;21049;-60
2023/10/06 12:50:18;;;;;;;6.50;3.57;;;26.50;85.40;;;;;;5112050;28;20459;-60
2023/10/06 12:52:51;;;;;;;5.13;3.03;;;26.70;84.50;;;;;;5112082;28;21011;-60
2023/10/06 12:55:24;;;;;;;6.83;3.53;;;26.90;83.20;;;;;;5110655;28;20451;-60
2023/10/06 12:57:52;;;;;;;6.30;3.40;;;27.10;83.60;;;;;;5111918;28;20497;-60
2023/10/06 13:00:19;;;;;;;7.57;3.37;;;27.10;82.80;;;;;;5114578;28;20451;-60
2023/10/06 13:02:47;;;;;;;7.00;3.80;;;27.10;82.80;;;;;;5115936;28;20797;-60
2023/10/06 13:05:18;;;;;;;7.90;4.37;;;27.10;82.60;;;;;;5115746;28;21131;-60
2023/10/06 13:07:48;;;;;;;6.57;3.67;;;27.00;81.10;;;;;;5114572;28;20446;-60